Time;durP1;ratioP1;P1;durP2;ratioP2;P2;SDS_P1;SDS_P2;PMS_P1;PMS_P2;Temp;Humidity;BMP_temperature;BMP_pressure;BME280_temperature;BME280_humidity;BME280_pressure;Samples;Min_cycle;Max_cycle;Signal;HPM_P1;HPM_P2
2022/05/23 00:01:51;;;;;;;8.33;4.10;;;17.80;99.90;;;;;;5011955;28;20190;-62
2022/05/23 00:04:17;;;;;;;5.80;5.30;;;17.70;99.90;;;;;;5011911;28;20466;-63
2022/05/23 00:06:43;;;;;;;4.97;4.20;;;17.50;99.90;;;;;;5011883;28;20198;-62
2022/05/23 00:09:09;;;;;;;4.63;4.10;;;17.40;99.90;;;;;;5011652;28;20421;-63
2022/05/23 00:11:35;;;;;;;3.83;3.43;;;17.20;99.90;;;;;;5011988;28;20847;-64
2022/05/23 00:14:01;;;;;;;4.40;4.00;;;17.10;99.90;;;;;;5012175;28;20434;-63
2022/05/23 00:16:31;;;;;;;4.70;4.33;;;17.00;99.90;;;;;;5011970;28;20792;-63
2022/05/23 00:18:56;;;;;;;4.30;3.90;;;17.00;99.90;;;;;;5011644;28;20190;-62
2022/05/23 00:21:22;;;;;;;5.63;3.57;;;17.00;99.90;;;;;;5011797;28;20418;-63
2022/05/23 00:23:47;;;;;;;5.93;3.40;;;17.20;99.90;;;;;;5011695;28;20281;-64
2022/05/23 00:26:16;;;;;;;3.67;3.47;;;17.40;99.90;;;;;;5011820;28;20189;-62
2022/05/23 00:28:42;;;;;;;4.67;3.70;;;17.50;99.90;;;;;;5011441;28;20205;-63
2022/05/23 00:31:08;;;;;;;3.53;3.33;;;17.60;99.90;;;;;;5011774;28;20413;-63
2022/05/23 00:36:18;;;;;;;4.87;4.57;;;17.30;99.90;;;;;;5011668;28;20568;-63
2022/05/23 00:38:44;;;;;;;5.00;4.60;;;17.10;99.90;;;;;;5011637;28;20755;-63
2022/05/23 00:44:34;;;;;;;3.60;3.40;;;16.80;99.90;;;;;;4987020;28;20222;-63
2022/05/23 00:47:15;;;;;;;4.23;3.93;;;16.70;99.90;;;;;;5012921;28;20496;-64
2022/05/23 00:49:41;;;;;;;4.60;4.20;;;16.60;99.90;;;;;;5013664;28;20426;-63
2022/05/23 00:52:12;;;;;;;4.37;3.97;;;16.40;99.90;;;;;;5015112;28;20476;-63
2022/05/23 00:54:43;;;;;;;4.30;3.93;;;16.40;99.90;;;;;;5015034;28;20446;-63
2022/05/23 00:57:15;;;;;;;4.47;4.07;;;16.40;99.90;;;;;;5015020;28;20436;-63
2022/05/23 00:59:41;;;;;;;6.13;3.40;;;16.50;99.90;;;;;;5014678;28;20430;-62
2022/05/23 01:02:10;;;;;;;5.70;3.53;;;16.50;99.90;;;;;;5014958;28;20418;-63
2022/05/23 01:04:35;;;;;;;3.90;3.60;;;16.50;99.90;;;;;;5014708;28;20515;-63
2022/05/23 01:07:01;;;;;;;4.97;3.80;;;16.50;99.90;;;;;;5014690;28;20469;-64
2022/05/23 01:09:27;;;;;;;5.53;3.93;;;16.50;99.90;;;;;;5014424;28;20181;-63
2022/05/23 01:11:56;;;;;;;3.90;3.50;;;16.40;99.90;;;;;;5014811;28;20335;-63
2022/05/23 01:14:22;;;;;;;3.30;3.03;;;16.40;99.90;;;;;;5014679;28;20442;-64
2022/05/23 01:16:48;;;;;;;3.60;3.30;;;16.40;99.90;;;;;;5014792;28;20475;-63
2022/05/23 01:19:13;;;;;;;4.13;3.73;;;16.40;99.90;;;;;;5014405;28;20552;-63
2022/05/23 01:21:52;;;;;;;11.03;4.30;;;16.40;99.90;;;;;;5014540;28;20186;-63
2022/05/23 01:24:23;;;;;;;3.57;3.37;;;16.30;99.90;;;;;;5014771;28;20300;-63
2022/05/23 01:26:50;;;;;;;4.53;4.17;;;16.40;99.90;;;;;;5014454;28;20541;-64
2022/05/23 01:29:16;;;;;;;3.70;3.40;;;16.40;99.90;;;;;;5014115;28;20984;-63
2022/05/23 01:31:42;;;;;;;5.17;4.13;;;16.40;99.90;;;;;;5014318;28;20555;-64
2022/05/23 01:34:08;;;;;;;4.97;4.47;;;16.40;99.90;;;;;;5014229;28;20191;-64
2022/05/23 01:36:34;;;;;;;3.93;3.47;;;16.30;99.90;;;;;;5014133;28;20437;-63
2022/05/23 01:39:00;;;;;;;4.50;3.60;;;16.20;99.90;;;;;;5013916;28;20175;-63
2022/05/23 01:41:25;;;;;;;4.37;4.07;;;16.20;99.90;;;;;;5014186;28;20555;-63
2022/05/23 01:43:52;;;;;;;4.10;3.80;;;16.10;99.90;;;;;;5014171;28;20958;-63
2022/05/23 01:46:18;;;;;;;4.53;4.03;;;16.10;99.90;;;;;;5014095;28;20167;-63
2022/05/23 01:48:43;;;;;;;4.93;3.60;;;16.00;99.90;;;;;;5013705;28;20461;-63
2022/05/23 01:51:09;;;;;;;3.93;3.70;;;16.00;99.90;;;;;;5013774;28;20175;-64
2022/05/23 01:53:34;;;;;;;4.43;4.13;;;16.00;99.90;;;;;;5014115;28;20199;-63
2022/05/23 01:56:06;;;;;;;4.33;3.90;;;16.00;99.90;;;;;;5013883;28;20179;-63
2022/05/23 02:01:17;;;;;;;4.20;3.80;;;16.00;99.90;;;;;;5013378;28;20440;-63
2022/05/23 02:03:44;;;;;;;3.97;3.67;;;16.00;99.90;;;;;;5013524;28;20471;-63
2022/05/23 02:06:10;;;;;;;3.80;3.50;;;16.00;99.90;;;;;;5013787;28;20425;-63
2022/05/23 02:08:36;;;;;;;4.60;4.20;;;16.00;99.90;;;;;;5013347;28;20465;-63
2022/05/23 02:11:05;;;;;;;4.43;4.07;;;16.00;99.90;;;;;;5014019;28;20803;-63
2022/05/23 02:13:33;;;;;;;4.23;3.90;;;15.90;99.90;;;;;;5013532;28;20472;-64
2022/05/23 02:15:59;;;;;;;5.03;3.83;;;15.90;99.90;;;;;;5013409;28;20457;-63
2022/05/23 02:18:25;;;;;;;4.43;4.13;;;16.00;99.90;;;;;;5013252;28;20458;-63
2022/05/23 02:20:51;;;;;;;3.77;3.47;;;16.00;99.90;;;;;;5013449;28;20226;-63
2022/05/23 02:23:16;;;;;;;4.20;3.90;;;16.00;99.90;;;;;;5013355;28;20849;-63
2022/05/23 02:25:42;;;;;;;4.57;4.10;;;16.10;99.90;;;;;;5013418;28;20183;-63
2022/05/23 02:28:08;;;;;;;4.33;3.77;;;16.00;99.90;;;;;;5013191;28;20234;-63
2022/05/23 02:30:33;;;;;;;3.63;3.40;;;15.90;99.90;;;;;;5012981;28;20228;-63
2022/05/23 02:32:59;;;;;;;4.23;3.93;;;15.90;99.90;;;;;;5013710;28;20469;-64
2022/05/23 02:35:24;;;;;;;4.47;3.37;;;15.90;99.90;;;;;;5013268;28;20182;-62
2022/05/23 02:37:50;;;;;;;4.23;3.80;;;15.90;99.90;;;;;;5013108;28;20636;-62
2022/05/23 02:40:15;;;;;;;3.40;3.10;;;15.80;99.90;;;;;;5012779;28;20175;-63
2022/05/23 02:42:41;;;;;;;3.70;3.50;;;15.80;99.90;;;;;;5013082;28;20183;-62
2022/05/23 02:45:07;;;;;;;3.97;3.73;;;15.80;99.90;;;;;;5013040;28;20280;-63
2022/05/23 02:47:33;;;;;;;6.43;4.17;;;15.90;99.90;;;;;;5012849;28;20242;-63
2022/05/23 02:49:59;;;;;;;4.43;4.10;;;15.90;99.90;;;;;;5012638;28;20426;-63
2022/05/23 02:52:25;;;;;;;3.53;3.33;;;15.90;99.90;;;;;;5012888;28;20433;-63
2022/05/23 02:54:50;;;;;;;3.77;3.57;;;15.90;99.90;;;;;;5012748;28;20555;-65
2022/05/23 02:57:16;;;;;;;3.97;3.67;;;15.90;99.90;;;;;;5012802;28;20183;-63
2022/05/23 02:59:41;;;;;;;5.13;3.90;;;15.90;99.90;;;;;;5012351;28;20182;-63
2022/05/23 03:04:51;;;;;;;4.90;3.50;;;16.00;99.90;;;;;;5012545;28;20289;-64
2022/05/23 03:07:17;;;;;;;6.13;3.83;;;15.90;99.90;;;;;;5012559;28;20500;-63
2022/05/23 03:09:45;;;;;;;3.63;3.40;;;15.90;99.90;;;;;;5011938;28;20175;-63
2022/05/23 03:12:12;;;;;;;4.53;3.63;;;15.90;99.90;;;;;;5012554;28;20163;-63
2022/05/23 03:14:38;;;;;;;3.67;3.47;;;15.80;99.90;;;;;;5012430;28;20579;-63
2022/05/23 03:17:05;;;;;;;3.80;3.50;;;15.70;99.90;;;;;;5012602;28;20509;-64
2022/05/23 03:19:31;;;;;;;5.33;4.17;;;15.80;99.90;;;;;;5012195;28;20410;-63
2022/05/23 03:27:25;;;;;;;3.80;3.50;;;16.00;99.90;;;;;;5012388;28;20841;-63
2022/05/23 03:29:51;;;;;;;3.63;3.43;;;16.10;99.90;;;;;;5010758;28;20422;-62
2022/05/23 03:32:17;;;;;;;5.07;4.00;;;16.20;99.90;;;;;;5012329;28;20898;-64
2022/05/23 03:34:43;;;;;;;4.00;3.50;;;16.20;99.90;;;;;;5012666;28;20190;-63
2022/05/23 03:37:08;;;;;;;4.70;3.50;;;16.20;99.90;;;;;;5012218;28;20445;-64
2022/05/23 03:39:38;;;;;;;5.00;4.50;;;16.20;99.90;;;;;;5011955;28;20244;-64
2022/05/23 03:42:04;;;;;;;4.20;3.80;;;16.30;99.90;;;;;;5012273;28;20562;-64
2022/05/23 03:44:30;;;;;;;4.00;3.60;;;16.30;99.90;;;;;;5012188;28;20455;-63
2022/05/23 03:46:56;;;;;;;4.03;3.73;;;16.30;99.90;;;;;;5012462;28;20449;-63
2022/05/23 03:49:21;;;;;;;4.03;3.73;;;16.20;99.90;;;;;;5011831;28;20664;-63
2022/05/23 03:51:47;;;;;;;5.83;5.30;;;16.30;99.90;;;;;;5012043;28;20182;-64
2022/05/23 03:54:12;;;;;;;5.00;4.60;;;16.40;99.90;;;;;;5010785;28;20218;-64
2022/05/23 03:56:38;;;;;;;6.37;3.57;;;16.50;99.90;;;;;;5012224;28;20175;-64
2022/05/23 03:59:04;;;;;;;4.00;3.70;;;16.50;99.90;;;;;;5011689;28;20544;-64
2022/05/23 04:01:30;;;;;;;4.00;3.50;;;16.50;99.90;;;;;;5012097;28;20175;-63
2022/05/23 04:03:57;;;;;;;3.43;3.10;;;16.50;99.90;;;;;;5012730;28;20839;-63
2022/05/23 04:06:23;;;;;;;4.13;3.80;;;16.50;99.90;;;;;;5011865;28;20458;-63
2022/05/23 04:08:49;;;;;;;4.30;4.00;;;16.50;99.90;;;;;;5011902;28;20492;-63
2022/05/23 04:11:14;;;;;;;4.00;3.03;;;16.50;99.90;;;;;;5012015;28;20787;-64
2022/05/23 04:13:40;;;;;;;4.20;3.80;;;16.60;99.90;;;;;;5011967;28;20187;-64
2022/05/23 04:16:06;;;;;;;4.03;3.73;;;16.60;99.90;;;;;;5012096;28;20225;-63
2022/05/23 04:18:33;;;;;;;8.00;4.03;;;16.70;99.90;;;;;;5011689;28;20175;-63
2022/05/23 04:20:59;;;;;;;4.17;3.87;;;16.60;99.90;;;;;;5011851;28;20171;-63
2022/05/23 04:23:25;;;;;;;4.63;3.77;;;16.50;99.90;;;;;;5015846;28;20457;-63
2022/05/23 04:25:51;;;;;;;4.00;3.60;;;16.60;99.90;;;;;;5015931;28;20426;-63
2022/05/23 04:28:18;;;;;;;3.80;3.50;;;16.50;99.90;;;;;;5013980;28;20672;-63
2022/05/23 04:30:45;;;;;;;6.40;4.07;;;16.60;99.90;;;;;;5015519;28;20182;-63
2022/05/23 04:35:57;;;;;;;4.03;3.63;;;16.70;99.90;;;;;;5015774;28;20417;-63
2022/05/23 04:38:22;;;;;;;4.43;3.73;;;16.70;99.90;;;;;;5015130;28;20464;-63
2022/05/23 04:40:48;;;;;;;4.13;3.73;;;16.70;99.90;;;;;;5015411;28;20481;-63
2022/05/23 04:43:14;;;;;;;3.43;3.13;;;16.80;99.90;;;;;;5015351;28;20195;-63
2022/05/23 04:45:40;;;;;;;4.90;4.27;;;16.90;99.90;;;;;;5015225;28;20450;-63
2022/05/23 04:50:50;;;;;;;4.33;3.73;;;16.80;99.90;;;;;;5015505;28;20788;-63
2022/05/23 04:53:16;;;;;;;4.37;4.07;;;16.50;99.90;;;;;;5015160;28;20433;-63
2022/05/23 04:55:43;;;;;;;4.83;4.40;;;16.30;99.90;;;;;;5015085;28;20632;-63
2022/05/23 04:58:10;;;;;;;5.20;4.80;;;16.20;99.90;;;;;;5014982;28;20422;-63
2022/05/23 05:00:39;;;;;;;4.00;3.60;;;16.20;99.90;;;;;;5014820;28;20433;-63
2022/05/23 05:03:05;;;;;;;4.30;4.00;;;16.20;99.90;;;;;;5014780;28;20481;-63
2022/05/23 05:05:30;;;;;;;4.23;4.00;;;16.30;99.90;;;;;;5014989;28;20993;-63
2022/05/23 05:07:57;;;;;;;4.40;3.73;;;16.30;99.90;;;;;;5014819;28;20826;-63
2022/05/23 05:10:24;;;;;;;5.17;3.70;;;16.30;99.90;;;;;;5014633;28;20174;-63
2022/05/23 05:12:51;;;;;;;4.60;4.20;;;16.40;99.90;;;;;;5014674;28;20417;-63
2022/05/23 05:15:17;;;;;;;4.80;4.40;;;16.50;99.90;;;;;;5014464;28;20946;-63
2022/05/23 05:17:44;;;;;;;4.00;3.60;;;16.60;99.90;;;;;;5014652;28;20422;-63
2022/05/23 05:20:10;;;;;;;4.90;4.43;;;16.60;99.90;;;;;;5014409;28;20472;-63
2022/05/23 05:22:36;;;;;;;3.93;3.57;;;16.50;99.90;;;;;;5014489;28;20422;-63
2022/05/23 05:25:04;;;;;;;5.13;4.60;;;16.70;99.90;;;;;;5014618;28;20445;-63
2022/05/23 05:27:29;;;;;;;4.87;4.47;;;16.70;99.90;;;;;;5005875;28;20226;-63
2022/05/23 05:29:56;;;;;;;5.07;4.67;;;16.70;99.90;;;;;;5002712;28;20466;-64
2022/05/23 05:32:38;;;;;;;5.80;4.23;;;16.70;99.90;;;;;;5004404;28;20172;-63
2022/05/23 05:35:12;;;;;;;4.67;4.10;;;16.70;99.90;;;;;;5005230;28;20430;-63
2022/05/23 05:37:47;;;;;;;6.30;3.93;;;16.70;99.90;;;;;;5004242;28;20422;-63
2022/05/23 05:40:17;;;;;;;4.20;3.60;;;16.60;99.90;;;;;;4994305;28;20506;-63
2022/05/23 05:42:48;;;;;;;3.80;3.60;;;16.50;99.90;;;;;;4994790;28;20418;-65
2022/05/23 05:45:30;;;;;;;8.90;4.70;;;16.70;99.90;;;;;;4994484;28;20489;-65
2022/05/23 05:47:56;;;;;;;4.80;4.40;;;16.80;99.90;;;;;;4994490;28;20447;-65
2022/05/23 05:50:27;;;;;;;5.47;3.70;;;16.90;99.90;;;;;;4994196;28;20425;-65
2022/05/23 05:52:56;;;;;;;4.70;4.27;;;17.00;99.90;;;;;;4994629;28;20419;-65
2022/05/23 05:55:21;;;;;;;4.53;3.70;;;17.20;99.90;;;;;;4994029;28;20800;-65
2022/05/23 05:57:48;;;;;;;5.13;4.10;;;17.40;99.90;;;;;;4994455;28;20502;-64
2022/05/23 06:00:14;;;;;;;5.37;4.87;;;17.50;99.90;;;;;;4993983;28;20188;-65
2022/05/23 06:02:40;;;;;;;4.70;4.00;;;17.60;99.90;;;;;;4994069;28;20454;-65
2022/05/23 06:05:05;;;;;;;5.37;4.70;;;17.60;99.90;;;;;;4994078;28;20959;-65
2022/05/23 06:13:02;;;;;;;5.43;4.93;;;18.10;99.90;;;;;;4994014;28;20445;-65
2022/05/23 06:15:28;;;;;;;6.13;4.77;;;18.10;99.90;;;;;;4994297;28;20411;-65
2022/05/23 06:17:54;;;;;;;5.90;5.40;;;17.80;99.90;;;;;;4993929;28;20183;-65
2022/05/23 06:20:20;;;;;;;6.80;6.17;;;17.70;99.90;;;;;;4993535;28;20270;-65
2022/05/23 06:22:46;;;;;;;6.40;5.80;;;17.70;99.90;;;;;;4993809;28;20593;-64
2022/05/23 06:25:15;;;;;;;6.70;6.10;;;17.40;99.90;;;;;;4993814;28;20422;-65
2022/05/23 06:27:41;;;;;;;5.80;5.40;;;17.00;99.90;;;;;;4993782;28;20450;-65
2022/05/23 06:30:09;;;;;;;6.40;5.67;;;17.00;99.90;;;;;;4993323;28;20426;-65
2022/05/23 06:32:35;;;;;;;7.07;6.37;;;17.10;99.90;;;;;;4992271;28;20178;-64
2022/05/23 06:35:01;;;;;;;10.00;6.13;;;17.10;99.90;;;;;;4993567;28;20925;-65
2022/05/23 06:37:26;;;;;;;5.27;4.80;;;17.30;99.90;;;;;;4993569;28;20430;-65
2022/05/23 06:39:52;;;;;;;6.67;6.17;;;17.50;99.90;;;;;;4993274;28;20179;-65
2022/05/23 06:42:18;;;;;;;6.87;6.10;;;17.40;99.90;;;;;;4993440;28;20183;-65
2022/05/23 06:44:44;;;;;;;6.00;5.40;;;17.50;99.90;;;;;;4992588;28;20195;-65
2022/05/23 06:47:10;;;;;;;6.50;5.83;;;17.50;99.90;;;;;;4993291;28;20450;-65
2022/05/23 06:49:36;;;;;;;8.17;6.20;;;17.40;99.90;;;;;;4993185;28;20709;-65
2022/05/23 06:52:01;;;;;;;7.00;6.27;;;17.60;99.90;;;;;;4993382;28;20415;-65
2022/05/23 06:54:27;;;;;;;8.23;6.53;;;17.40;99.90;;;;;;4993306;28;20200;-65
2022/05/23 06:56:52;;;;;;;7.50;4.83;;;17.20;99.90;;;;;;4993331;28;20222;-65
2022/05/23 06:59:19;;;;;;;6.77;6.07;;;17.20;99.90;;;;;;4992920;28;20171;-65
2022/05/23 07:01:46;;;;;;;6.30;5.87;;;17.20;99.90;;;;;;4993085;28;20266;-65
2022/05/23 07:04:11;;;;;;;6.33;5.73;;;17.20;99.90;;;;;;4993008;28;20459;-65
2022/05/23 07:12:21;;;;;;;6.13;5.60;;;17.60;99.90;;;;;;4993075;28;20430;-65
2022/05/23 07:14:47;;;;;;;5.93;5.47;;;17.70;99.90;;;;;;4992857;28;20538;-65
2022/05/23 07:17:13;;;;;;;6.90;6.30;;;17.60;99.90;;;;;;4992933;28;20419;-66
2022/05/23 07:19:41;;;;;;;5.70;5.20;;;17.80;99.90;;;;;;4988400;28;20548;-64
2022/05/23 07:22:07;;;;;;;6.13;5.60;;;18.10;99.90;;;;;;4980648;28;20434;-65
2022/05/23 07:24:33;;;;;;;14.77;6.33;;;18.30;99.90;;;;;;5002769;28;20461;-65
2022/05/23 07:27:00;;;;;;;11.73;5.70;;;18.50;99.90;;;;;;5011589;28;20453;-65
2022/05/23 07:29:26;;;;;;;5.43;4.93;;;18.60;99.90;;;;;;5011521;28;20454;-65
2022/05/23 07:31:52;;;;;;;5.80;5.30;;;18.60;99.90;;;;;;5008526;28;20417;-66
2022/05/23 07:34:19;;;;;;;5.63;5.20;;;18.90;99.90;;;;;;5012194;28;20434;-64
2022/05/23 07:36:45;;;;;;;5.27;4.77;;;19.20;99.90;;;;;;5004470;28;20253;-64
2022/05/23 07:39:12;;;;;;;5.47;4.97;;;19.10;99.90;;;;;;5008536;28;20982;-64
2022/05/23 07:41:39;;;;;;;5.70;5.20;;;19.10;99.90;;;;;;5005043;28;20436;-64
2022/05/23 07:44:06;;;;;;;5.60;5.17;;;18.90;99.90;;;;;;5007340;28;20503;-63
2022/05/23 07:46:34;;;;;;;5.93;5.43;;;18.90;99.90;;;;;;5008939;28;20418;-63
2022/05/23 07:49:00;;;;;;;6.00;5.43;;;18.90;99.90;;;;;;5007132;28;20461;-64
2022/05/23 07:51:30;;;;;;;5.87;5.30;;;18.90;99.90;;;;;;5005571;28;20784;-63
2022/05/23 08:02:11;;;;;;;5.97;5.40;;;19.60;99.90;;;;;;5015261;28;20425;-64
2022/05/23 08:04:36;;;;;;;6.20;4.80;;;20.00;99.90;;;;;;5016115;28;20477;-65
2022/05/23 08:07:02;;;;;;;5.20;4.80;;;20.50;99.90;;;;;;5015812;28;21020;-64
2022/05/23 08:09:28;;;;;;;5.50;5.10;;;20.60;99.90;;;;;;5015640;28;20422;-65
2022/05/23 08:11:55;;;;;;;5.37;4.87;;;21.10;99.90;;;;;;5011428;28;20171;-64
2022/05/23 08:14:22;;;;;;;5.37;4.23;;;21.50;99.90;;;;;;5015811;28;20202;-64
2022/05/23 08:16:48;;;;;;;5.23;4.73;;;21.40;99.90;;;;;;5015721;28;20791;-63
2022/05/23 08:19:14;;;;;;;6.40;4.57;;;21.80;99.90;;;;;;5015532;28;20436;-64
2022/05/23 08:21:51;;;;;;;7.30;5.00;;;22.00;99.90;;;;;;5012168;28;20425;-64
2022/05/23 08:24:16;;;;;;;6.50;5.90;;;21.80;99.90;;;;;;5015572;28;20198;-64
2022/05/23 08:26:43;;;;;;;6.53;5.83;;;21.70;99.90;;;;;;5015601;28;20432;-64
2022/05/23 08:29:09;;;;;;;6.97;5.30;;;21.40;99.90;;;;;;5015254;28;20229;-64
2022/05/23 08:31:36;;;;;;;4.47;4.07;;;21.20;99.90;;;;;;5011798;28;20509;-64
2022/05/23 08:34:01;;;;;;;5.30;4.90;;;20.90;99.90;;;;;;5014139;28;20433;-64
2022/05/23 08:36:27;;;;;;;6.53;4.30;;;20.80;99.90;;;;;;5006913;28;20442;-64
2022/05/23 08:38:52;;;;;;;5.20;4.30;;;20.80;99.90;;;;;;5011446;28;20191;-64
2022/05/23 08:41:26;;;;;;;4.47;4.17;;;20.80;99.90;;;;;;5008429;28;20577;-64
2022/05/23 08:44:19;;;;;;;4.27;3.97;;;20.80;99.90;;;;;;5011677;28;20202;-64
2022/05/23 08:47:03;;;;;;;6.87;4.03;;;21.10;99.90;;;;;;5012268;28;20444;-64
2022/05/23 08:49:38;;;;;;;5.00;4.63;;;21.20;99.90;;;;;;5016257;28;20763;-64
2022/05/23 08:52:07;;;;;;;4.67;4.33;;;20.80;99.90;;;;;;5010088;28;20421;-64
2022/05/23 08:54:48;;;;;;;5.80;4.90;;;20.40;99.90;;;;;;5009893;28;20537;-64
2022/05/23 08:57:27;;;;;;;4.60;4.20;;;20.90;99.90;;;;;;5011983;28;20425;-63
2022/05/23 08:59:56;;;;;;;5.07;4.60;;;20.80;99.90;;;;;;5008436;28;20823;-63
2022/05/23 09:02:43;;;;;;;5.40;4.70;;;20.60;99.90;;;;;;5011650;28;20943;-64
2022/05/23 09:05:21;;;;;;;5.43;5.03;;;20.40;99.90;;;;;;5011638;28;20433;-64
2022/05/23 09:07:59;;;;;;;5.70;4.60;;;20.20;99.90;;;;;;5010751;28;20457;-64
2022/05/23 09:10:49;;;;;;;5.80;5.30;;;20.10;99.90;;;;;;5006438;28;20487;-64
2022/05/23 09:13:16;;;;;;;7.03;4.80;;;20.10;99.90;;;;;;5023312;28;20452;-64
2022/05/23 09:15:42;;;;;;;5.63;5.10;;;19.90;99.90;;;;;;5031357;28;20421;-63
2022/05/23 09:18:16;;;;;;;7.37;4.90;;;19.70;99.90;;;;;;5031072;28;20516;-64
2022/05/23 09:20:48;;;;;;;6.00;5.50;;;19.60;99.90;;;;;;5018291;28;20954;-64
2022/05/23 09:23:34;;;;;;;6.47;5.27;;;19.60;99.90;;;;;;5011643;28;20441;-64
2022/05/23 09:26:02;;;;;;;7.17;5.40;;;19.50;99.90;;;;;;5011526;28;20422;-64
2022/05/23 09:28:28;;;;;;;5.80;5.37;;;19.40;99.90;;;;;;5010807;28;20999;-64
2022/05/23 09:31:01;;;;;;;5.73;5.43;;;19.50;99.90;;;;;;5007778;28;20418;-64
2022/05/23 09:33:30;;;;;;;6.37;5.97;;;19.50;99.90;;;;;;5011118;28;20194;-64
2022/05/23 09:36:16;;;;;;;5.60;5.20;;;19.50;99.90;;;;;;5011091;28;20425;-64
2022/05/23 09:38:50;;;;;;;5.67;5.17;;;19.70;99.90;;;;;;5010614;28;20851;-64
2022/05/23 09:41:28;;;;;;;5.60;5.10;;;20.00;99.90;;;;;;5004386;28;20425;-64
2022/05/23 09:49:24;;;;;;;6.07;4.67;;;21.00;99.90;;;;;;4997571;28;20469;-64
2022/05/23 09:51:55;;;;;;;5.43;4.60;;;21.40;99.90;;;;;;5008921;28;20506;-64
2022/05/23 09:54:46;;;;;;;5.10;4.70;;;21.60;99.90;;;;;;5012474;28;20844;-64
2022/05/23 09:57:39;;;;;;;4.77;4.37;;;21.40;99.90;;;;;;4995998;28;20509;-63
2022/05/23 10:00:07;;;;;;;4.73;4.33;;;21.70;99.90;;;;;;4995541;28;20426;-64
2022/05/23 10:02:47;;;;;;;6.50;5.90;;;22.40;99.90;;;;;;5013304;28;20417;-68
2022/05/23 10:05:26;;;;;;;5.87;5.47;;;23.10;99.90;;;;;;5014225;28;20418;-70
2022/05/23 10:07:54;;;;;;;5.40;4.57;;;23.20;99.90;;;;;;5013729;28;20552;-68
2022/05/23 10:10:26;;;;;;;4.97;4.50;;;23.20;99.90;;;;;;5009745;28;20449;-67
2022/05/23 10:13:12;;;;;;;5.50;5.00;;;23.20;99.90;;;;;;5013777;28;20437;-67
2022/05/23 10:15:45;;;;;;;6.97;6.27;;;23.20;99.90;;;;;;5011746;28;20476;-66
2022/05/23 10:18:24;;;;;;;6.67;6.07;;;23.20;99.90;;;;;;5013459;28;20425;-66
2022/05/23 10:20:50;;;;;;;5.40;5.00;;;23.20;99.90;;;;;;5008992;28;20414;-66
2022/05/23 10:23:29;;;;;;;5.87;5.37;;;23.30;99.90;;;;;;5013403;28;20441;-67
2022/05/23 10:26:18;;;;;;;6.20;4.63;;;23.00;99.90;;;;;;5013369;28;20563;-67
2022/05/23 10:28:52;;;;;;;5.50;3.80;;;22.80;99.90;;;;;;5012986;28;20544;-68
2022/05/23 10:31:48;;;;;;;5.57;5.17;;;22.80;99.90;;;;;;5009306;28;20517;-67
2022/05/23 10:34:41;;;;;;;5.37;4.87;;;22.80;99.90;;;;;;5011889;28;20441;-67
2022/05/23 10:37:15;;;;;;;5.20;4.80;;;22.70;99.90;;;;;;5013075;28;20504;-67
2022/05/23 10:42:46;;;;;;;4.87;4.47;;;22.50;99.90;;;;;;5012394;28;20807;-67
2022/05/23 10:45:18;;;;;;;5.50;5.00;;;22.20;99.90;;;;;;5013051;28;20572;-68
2022/05/23 10:47:43;;;;;;;6.97;4.87;;;22.10;99.90;;;;;;5012815;28;20461;-66
2022/05/23 10:50:33;;;;;;;6.00;5.50;;;21.80;99.90;;;;;;5009507;28;20452;-66
2022/05/23 10:53:19;;;;;;;9.07;8.33;;;21.70;99.90;;;;;;5012557;28;20239;-67
2022/05/23 10:56:03;;;;;;;7.97;5.67;;;21.60;99.90;;;;;;5013019;28;20421;-66
2022/05/23 10:58:31;;;;;;;6.20;4.70;;;21.50;99.90;;;;;;5012510;28;20922;-68
2022/05/23 11:01:27;;;;;;;5.97;5.47;;;21.20;99.90;;;;;;5008657;28;20433;-66
2022/05/23 11:04:10;;;;;;;6.20;5.50;;;20.90;99.90;;;;;;5011232;28;20752;-66
2022/05/23 11:06:54;;;;;;;10.90;8.43;;;20.60;99.90;;;;;;5005651;28;20438;-66
2022/05/23 11:09:39;;;;;;;7.37;6.43;;;20.40;99.90;;;;;;5003079;28;20780;-66
2022/05/23 11:12:20;;;;;;;8.63;6.93;;;20.20;99.90;;;;;;5007677;28;20848;-67
2022/05/23 11:15:13;;;;;;;8.10;7.30;;;19.90;99.90;;;;;;4992120;28;20454;-67
2022/05/23 11:17:50;;;;;;;8.63;7.97;;;19.40;99.90;;;;;;5005513;28;20429;-67
2022/05/23 11:20:26;;;;;;;8.07;7.47;;;19.10;99.90;;;;;;5005684;28;20429;-66
2022/05/23 11:23:00;;;;;;;13.40;9.10;;;18.90;99.90;;;;;;5008945;28;21000;-67
2022/05/23 11:25:32;;;;;;;8.87;7.97;;;18.70;99.90;;;;;;5009167;28;20453;-66
2022/05/23 11:34:25;;;;;;;11.33;10.27;;;18.30;99.90;;;;;;4929189;29;20460;-65
2022/05/23 11:36:56;;;;;;;11.27;10.10;;;18.10;99.90;;;;;;4997331;28;20464;-66
2022/05/23 11:39:41;;;;;;;16.73;9.70;;;18.10;99.90;;;;;;5009010;28;20432;-66
2022/05/23 11:42:30;;;;;;;15.17;11.23;;;17.90;99.90;;;;;;5007566;28;20428;-66
2022/05/23 11:45:57;;;;;;;11.90;9.23;;;17.90;99.90;;;;;;5009021;28;20474;-66
2022/05/23 11:47:57;;;;;;;11.07;7.80;;;17.70;99.90;;;;;;5008620;28;20473;-66
2022/05/23 11:50:26;;;;;;;8.80;7.10;;;17.70;99.90;;;;;;5005607;28;20439;-66
2022/05/23 11:53:04;;;;;;;9.97;7.33;;;17.50;99.90;;;;;;5008417;28;20929;-66
2022/05/23 11:55:52;;;;;;;7.80;5.30;;;17.40;99.90;;;;;;5008940;28;20432;-65
2022/05/23 11:58:37;;;;;;;9.47;6.20;;;17.40;99.90;;;;;;5008599;28;20410;-66
2022/05/23 12:01:10;;;;;;;8.17;6.50;;;17.40;99.90;;;;;;5005176;28;20902;-66
2022/05/23 12:03:47;;;;;;;9.67;4.93;;;17.30;99.90;;;;;;5008301;28;20470;-66
2022/05/23 12:06:38;;;;;;;5.27;4.77;;;17.10;99.90;;;;;;5010841;28;20426;-68
2022/05/23 12:09:13;;;;;;;9.33;5.23;;;17.00;99.90;;;;;;4998344;28;20468;-68
2022/05/23 12:11:51;;;;;;;8.60;4.40;;;16.90;99.90;;;;;;5008121;28;20421;-66
2022/05/23 12:14:29;;;;;;;9.37;4.67;;;16.90;99.90;;;;;;4992056;28;20442;-70
2022/05/23 12:16:54;;;;;;;8.43;5.33;;;17.00;99.90;;;;;;4992405;28;20484;-67
2022/05/23 12:19:38;;;;;;;6.10;4.70;;;17.20;99.90;;;;;;4991799;28;20505;-67
2022/05/23 12:22:19;;;;;;;7.37;4.37;;;17.20;99.90;;;;;;5015240;28;20655;-67
2022/05/23 12:25:10;;;;;;;6.93;4.77;;;17.30;99.90;;;;;;5031765;28;20971;-67
2022/05/23 12:27:44;;;;;;;9.17;5.03;;;17.40;99.90;;;;;;5031500;28;20456;-67
2022/05/23 12:30:24;;;;;;;9.03;4.67;;;17.50;99.90;;;;;;5022411;28;20513;-67
2022/05/23 12:32:58;;;;;;;5.83;4.20;;;17.50;99.90;;;;;;5011117;28;20436;-68
2022/05/23 12:35:39;;;;;;;7.17;5.20;;;17.70;99.90;;;;;;5011385;28;20487;-68
2022/05/23 12:38:29;;;;;;;5.03;4.47;;;17.70;99.90;;;;;;5011677;28;20427;-67
2022/05/23 12:41:16;;;;;;;5.03;4.30;;;17.90;99.90;;;;;;5007886;28;20464;-67
2022/05/23 12:44:15;;;;;;;6.40;4.60;;;18.00;99.90;;;;;;5013965;28;20536;-66
2022/05/23 12:46:48;;;;;;;6.80;4.80;;;18.20;99.90;;;;;;5015132;28;20999;-66
2022/05/23 12:49:34;;;;;;;5.67;4.83;;;18.40;99.90;;;;;;5014926;28;20425;-66
2022/05/23 12:52:05;;;;;;;10.73;4.87;;;18.60;99.90;;;;;;5012590;28;20903;-67
2022/05/23 12:54:48;;;;;;;7.43;4.43;;;18.80;99.90;;;;;;5015061;28;20437;-69
2022/05/23 12:57:32;;;;;;;9.50;4.80;;;19.00;99.90;;;;;;5013659;28;20923;-67
2022/05/23 13:00:13;;;;;;;6.87;4.10;;;19.40;99.90;;;;;;5011455;28;20432;-69
2022/05/23 13:03:07;;;;;;;5.00;3.70;;;20.10;99.90;;;;;;5014186;28;20457;-68
2022/05/23 13:05:40;;;;;;;7.73;4.40;;;20.40;99.90;;;;;;5014878;28;20542;-68
2022/05/23 13:08:47;;;;;;;7.17;3.80;;;20.70;99.90;;;;;;5014589;28;20462;-68
2022/05/23 13:11:20;;;;;;;6.53;3.40;;;20.90;99.90;;;;;;4931066;29;21246;-68
2022/05/23 13:13:48;;;;;;;4.90;3.47;;;21.00;99.90;;;;;;4950445;29;20448;-67
2022/05/23 13:16:16;;;;;;;4.87;3.30;;;21.00;99.90;;;;;;4998448;28;20436;-68
2022/05/23 13:24:48;;;;;;;4.43;2.70;;;22.80;99.90;;;;;;5014417;28;20496;-67
2022/05/23 13:27:01;;;;;;;3.30;3.00;;;23.20;99.90;;;;;;5014362;28;20434;-70
2022/05/23 13:29:26;;;;;;;4.00;2.77;;;23.00;99.90;;;;;;5013854;28;20425;-68
2022/05/23 13:31:59;;;;;;;7.03;3.47;;;23.10;99.90;;;;;;5010569;28;20421;-68
2022/05/23 13:34:31;;;;;;;5.70;2.77;;;23.10;99.90;;;;;;5014169;28;20217;-70
2022/05/23 13:36:56;;;;;;;4.53;3.40;;;22.70;99.90;;;;;;5014317;28;20914;-67
2022/05/23 13:39:22;;;;;;;6.33;3.73;;;22.60;99.90;;;;;;5013824;28;20421;-67
2022/05/23 13:41:48;;;;;;;5.80;3.47;;;22.70;99.90;;;;;;5010426;28;20204;-69
2022/05/23 13:44:30;;;;;;;5.30;4.00;;;22.80;99.90;;;;;;5014173;28;20250;-69
2022/05/23 13:47:25;;;;;;;5.13;3.33;;;22.60;99.90;;;;;;5014117;28;20663;-70
2022/05/23 13:49:54;;;;;;;5.53;3.67;;;22.60;99.90;;;;;;5010495;28;20469;-67
2022/05/23 13:52:28;;;;;;;6.40;4.37;;;22.90;99.90;;;;;;5013338;28;20423;-64
2022/05/23 13:55:05;;;;;;;5.13;4.57;;;22.90;99.90;;;;;;5013837;28;20446;-64
2022/05/23 13:57:35;;;;;;;5.67;4.00;;;23.00;99.90;;;;;;5014426;28;20432;-65
2022/05/23 14:00:13;;;;;;;7.90;3.50;;;23.60;99.90;;;;;;5010395;28;20418;-64
2022/05/23 14:02:45;;;;;;;7.07;3.20;;;23.70;99.90;;;;;;5018515;28;20487;-68
2022/05/23 14:05:11;;;;;;;7.13;3.20;;;23.30;99.90;;;;;;5013931;28;20489;-67
2022/05/23 14:07:39;;;;;;;8.13;3.30;;;23.00;99.90;;;;;;5013541;28;20449;-68